createdAt,value
2022-10-26T00:01:19.862Z,15.70
2022-10-26T00:03:46.943Z,15.72
2022-10-26T00:06:22.206Z,15.74
2022-10-26T00:08:48.889Z,15.74
2022-10-26T00:11:16.004Z,15.73
2022-10-26T00:13:42.947Z,15.74
2022-10-26T00:16:21.121Z,15.74
2022-10-26T00:18:48.469Z,15.75
2022-10-26T00:21:15.596Z,15.74
2022-10-26T00:23:42.273Z,15.76
2022-10-26T00:26:09.456Z,15.77
2022-10-26T00:28:36.262Z,15.77
2022-10-26T00:31:06.468Z,15.77
2022-10-26T00:33:33.694Z,15.78
2022-10-26T00:36:01.031Z,15.77
2022-10-26T00:38:27.605Z,15.79
2022-10-26T00:40:54.133Z,15.79
2022-10-26T00:43:26.801Z,15.81
2022-10-26T00:45:59.538Z,15.81
2022-10-26T00:48:38.629Z,15.82
2022-10-26T00:51:13.873Z,15.81
2022-10-26T00:53:40.701Z,15.78
2022-10-26T00:56:11.878Z,15.76
2022-10-26T00:58:39.286Z,15.74
2022-10-26T01:01:05.816Z,15.73
2022-10-26T01:03:34.502Z,15.73
2022-10-26T01:06:03.202Z,15.74
2022-10-26T01:08:30.198Z,15.74
2022-10-26T01:10:58.080Z,15.74
2022-10-26T01:13:28.318Z,15.76
2022-10-26T01:15:57.207Z,15.76
2022-10-26T01:18:54.274Z,15.75
2022-10-26T01:21:26.823Z,15.78
2022-10-26T01:24:31.805Z,15.78
2022-10-26T01:27:35.415Z,15.77
2022-10-26T01:30:18.659Z,15.74
2022-10-26T01:32:54.252Z,15.74
2022-10-26T01:35:26.548Z,15.76
2022-10-26T01:37:58.850Z,15.79
2022-10-26T01:40:35.112Z,15.80
2022-10-26T01:43:08.057Z,15.82
2022-10-26T01:45:42.183Z,15.83
2022-10-26T01:48:12.422Z,15.83
2022-10-26T01:50:40.948Z,15.83
2022-10-26T01:53:07.393Z,15.83
2022-10-26T01:55:52.867Z,15.82
2022-10-26T01:58:44.345Z,15.84
2022-10-26T02:01:34.092Z,15.85
2022-10-26T02:04:20.804Z,15.86
2022-10-26T02:07:04.374Z,15.87
2022-10-26T02:10:00.896Z,15.87
2022-10-26T02:12:33.444Z,15.88
2022-10-26T02:15:27.333Z,15.85
2022-10-26T02:18:38.097Z,15.87
2022-10-26T02:21:09.798Z,15.89
2022-10-26T02:23:40.975Z,15.88
2022-10-26T02:26:13.628Z,15.87
2022-10-26T02:28:47.160Z,15.89
2022-10-26T02:31:14.985Z,15.90
2022-10-26T02:33:46.128Z,15.92
2022-10-26T02:36:18.715Z,15.93
2022-10-26T02:38:46.514Z,15.94
2022-10-26T02:41:14.981Z,15.97
2022-10-26T02:43:48.594Z,15.97
2022-10-26T02:46:20.630Z,15.97
2022-10-26T02:48:47.369Z,15.98
2022-10-26T02:51:13.756Z,15.98
2022-10-26T02:53:49.556Z,15.97
2022-10-26T02:56:23.154Z,15.97
2022-10-26T02:58:54.805Z,15.98
2022-10-26T03:01:21.535Z,15.98
2022-10-26T03:03:48.479Z,15.99
2022-10-26T03:06:24.162Z,16.00
2022-10-26T03:08:50.878Z,16.01
2022-10-26T03:11:17.827Z,16.03
2022-10-26T03:13:44.455Z,16.02
2022-10-26T03:16:11.531Z,16.01
2022-10-26T03:18:38.094Z,16.00
2022-10-26T03:21:04.734Z,15.98
2022-10-26T03:23:31.195Z,15.97
2022-10-26T03:26:01.924Z,15.97
2022-10-26T03:28:28.958Z,15.97
2022-10-26T03:30:55.458Z,15.96
2022-10-26T03:33:25.580Z,15.96
2022-10-26T03:35:59.234Z,15.95
2022-10-26T03:38:25.720Z,15.94
2022-10-26T03:40:52.418Z,15.91
2022-10-26T03:43:19.228Z,15.89
2022-10-26T03:45:47.982Z,15.91
2022-10-26T03:48:14.603Z,15.89
2022-10-26T03:50:41.367Z,15.89
2022-10-26T03:53:07.972Z,15.92
2022-10-26T03:55:34.902Z,15.92
2022-10-26T03:58:01.392Z,15.92
2022-10-26T04:00:28.002Z,15.92
2022-10-26T04:02:56.838Z,15.94
2022-10-26T04:05:27.067Z,15.96
2022-10-26T04:08:04.358Z,15.96
2022-10-26T04:10:31.546Z,15.98
2022-10-26T04:13:01.818Z,15.99
2022-10-26T04:15:29.625Z,16.01
2022-10-26T04:18:00.777Z,16.03
2022-10-26T04:20:28.986Z,16.05
2022-10-26T04:23:04.153Z,16.07
2022-10-26T04:25:33.266Z,16.08
2022-10-26T04:28:01.745Z,16.09
2022-10-26T04:30:28.220Z,16.10
2022-10-26T04:32:54.846Z,16.11
2022-10-26T04:35:22.901Z,16.08
2022-10-26T04:37:49.465Z,16.08
2022-10-26T04:40:16.084Z,16.08
2022-10-26T04:42:44.268Z,16.10
2022-10-26T04:45:12.249Z,16.11
2022-10-26T04:47:39.135Z,16.12
2022-10-26T04:50:06.727Z,16.11
2022-10-26T04:52:33.510Z,16.13
2022-10-26T04:55:01.941Z,16.11
2022-10-26T04:57:28.574Z,16.12
2022-10-26T04:59:55.054Z,16.13
2022-10-26T05:02:21.723Z,16.14
2022-10-26T05:04:52.045Z,16.13
2022-10-26T05:07:18.574Z,16.15
2022-10-26T05:09:45.082Z,16.17
2022-10-26T05:12:11.537Z,16.18
2022-10-26T05:14:39.858Z,16.19
2022-10-26T05:17:06.321Z,16.19
2022-10-26T05:19:32.790Z,16.21
2022-10-26T05:21:59.266Z,16.23
2022-10-26T05:24:28.502Z,16.23
2022-10-26T05:26:55.032Z,16.24
2022-10-26T05:29:21.553Z,16.26
2022-10-26T05:31:48.016Z,16.28
2022-10-26T05:34:17.738Z,16.30
2022-10-26T05:36:44.165Z,16.33
2022-10-26T05:39:10.635Z,16.35
2022-10-26T05:41:37.118Z,16.36
2022-10-26T05:44:07.879Z,16.40
2022-10-26T05:46:34.338Z,16.43
2022-10-26T05:49:00.797Z,16.45
2022-10-26T05:51:27.343Z,16.48
2022-10-26T05:53:54.700Z,16.50
2022-10-26T05:56:42.878Z,16.52
2022-10-26T05:59:12.475Z,16.57
2022-10-26T06:02:03.834Z,16.61
2022-10-26T06:04:48.911Z,16.64
2022-10-26T06:07:18.244Z,16.65
2022-10-26T06:09:45.512Z,16.67
2022-10-26T06:12:14.508Z,16.70
2022-10-26T06:14:48.250Z,16.71
2022-10-26T06:17:33.353Z,16.73
2022-10-26T06:20:09.092Z,16.76
2022-10-26T06:22:38.270Z,16.78
2022-10-26T06:25:35.690Z,16.79
2022-10-26T06:28:16.714Z,16.81
2022-10-26T06:30:43.757Z,16.82
2022-10-26T06:33:24.995Z,16.83
2022-10-26T06:36:19.550Z,16.86
2022-10-26T06:38:48.537Z,16.88
2022-10-26T06:41:18.844Z,16.91
2022-10-26T06:43:45.690Z,16.90
2022-10-26T06:46:33.956Z,16.90
2022-10-26T06:49:06.505Z,16.89
2022-10-26T06:51:40.899Z,16.90
2022-10-26T06:54:34.146Z,16.91
2022-10-26T06:57:01.029Z,16.95
2022-10-26T06:59:45.653Z,16.98
2022-10-26T07:02:12.859Z,17.01
2022-10-26T07:04:47.350Z,17.04
2022-10-26T07:07:37.889Z,17.04
2022-10-26T07:10:04.606Z,17.06
2022-10-26T07:12:33.090Z,17.04
2022-10-26T07:15:00.715Z,17.03
2022-10-26T07:17:28.412Z,17.01
2022-10-26T07:19:55.101Z,17.01
2022-10-26T07:22:23.179Z,17.02
2022-10-26T07:24:53.259Z,17.04
2022-10-26T07:27:19.792Z,17.05
2022-10-26T07:29:46.282Z,17.05
2022-10-26T07:32:12.766Z,17.05
2022-10-26T07:34:40.808Z,17.04
2022-10-26T07:37:07.316Z,17.07
2022-10-26T07:39:33.985Z,17.09
2022-10-26T07:42:00.458Z,17.12
2022-10-26T07:44:30.721Z,17.14
2022-10-26T07:46:57.313Z,17.17
2022-10-26T07:49:26.217Z,17.21
2022-10-26T07:51:54.306Z,17.25
2022-10-26T07:54:23.889Z,17.29
2022-10-26T07:56:50.395Z,17.32
2022-10-26T07:59:19.558Z,17.36
2022-10-26T08:01:46.315Z,17.41
2022-10-26T08:04:17.285Z,17.47
2022-10-26T08:06:44.165Z,17.51
2022-10-26T08:09:10.679Z,17.57
2022-10-26T08:11:37.159Z,17.63
2022-10-26T08:14:08.327Z,17.69
2022-10-26T08:16:35.056Z,17.75
2022-10-26T08:19:01.687Z,17.82
2022-10-26T08:21:39.221Z,17.90
2022-10-26T08:24:09.923Z,17.98
2022-10-26T08:26:36.784Z,18.04
2022-10-26T08:29:03.636Z,18.10
2022-10-26T08:31:30.159Z,18.17
2022-10-26T08:33:56.613Z,18.25
2022-10-26T08:36:26.315Z,18.36
2022-10-26T08:38:52.986Z,18.48
2022-10-26T08:41:53.341Z,18.60
2022-10-26T08:44:25.906Z,18.78
2022-10-26T08:46:58.460Z,18.96
2022-10-26T08:49:40.230Z,19.16
2022-10-26T08:52:10.810Z,19.38
2022-10-26T08:54:55.931Z,19.60
2022-10-26T08:57:39.231Z,19.83
2022-10-26T09:00:15.523Z,20.01
2022-10-26T09:02:42.018Z,20.18
2022-10-26T09:05:19.323Z,20.35
2022-10-26T09:07:52.396Z,20.51
2022-10-26T09:10:46.577Z,20.68
2022-10-26T09:13:34.833Z,20.85
2022-10-26T09:16:22.091Z,21.01
2022-10-26T09:18:51.580Z,21.17
2022-10-26T09:21:45.270Z,21.29
2022-10-26T09:24:21.963Z,21.41
2022-10-26T09:26:55.350Z,21.54
2022-10-26T09:29:27.655Z,21.67
2022-10-26T09:31:56.895Z,21.79
2022-10-26T09:34:48.566Z,21.94
2022-10-26T09:37:23.299Z,22.07
2022-10-26T09:40:13.280Z,22.20
2022-10-26T09:42:45.472Z,22.38
2022-10-26T09:45:20.543Z,22.49
2022-10-26T09:47:52.924Z,22.60
2022-10-26T09:50:28.291Z,22.73
2022-10-26T09:52:54.858Z,22.86
2022-10-26T09:55:22.833Z,22.96
2022-10-26T09:57:54.071Z,23.05
2022-10-26T10:00:23.633Z,23.15
2022-10-26T10:02:52.878Z,23.25
2022-10-26T10:05:50.351Z,23.34
2022-10-26T10:08:16.870Z,23.41
2022-10-26T10:10:58.814Z,23.45
2022-10-26T10:13:35.491Z,23.49
2022-10-26T10:16:05.618Z,23.53
2022-10-26T10:18:33.356Z,23.56
2022-10-26T10:21:00.410Z,23.58
2022-10-26T10:23:47.140Z,23.61
2022-10-26T10:26:13.793Z,23.66
2022-10-26T10:28:42.593Z,23.72
2022-10-26T10:31:26.874Z,23.78
2022-10-26T10:33:54.275Z,23.86
2022-10-26T10:36:25.137Z,23.96
2022-10-26T10:38:53.404Z,24.04
2022-10-26T10:41:36.316Z,24.11
2022-10-26T10:44:27.703Z,24.15
2022-10-26T10:47:06.467Z,24.22
2022-10-26T10:49:33.966Z,24.27
2022-10-26T10:52:00.602Z,24.32
2022-10-26T10:54:38.326Z,24.39
2022-10-26T10:57:39.582Z,24.50
2022-10-26T11:00:09.747Z,24.57
2022-10-26T11:03:04.736Z,24.61
2022-10-26T11:06:06.182Z,24.66
2022-10-26T11:08:49.076Z,24.74
2022-10-26T11:11:21.558Z,24.82
2022-10-26T11:13:56.901Z,24.90
2022-10-26T11:16:33.350Z,24.95
2022-10-26T11:19:07.345Z,24.98
2022-10-26T11:21:37.862Z,25.03
2022-10-26T11:24:38.465Z,25.09
2022-10-26T11:27:33.054Z,25.16
2022-10-26T11:30:07.253Z,25.21
2022-10-26T11:32:40.087Z,25.21
2022-10-26T11:35:24.511Z,25.18
2022-10-26T11:38:11.893Z,25.12
2022-10-26T11:41:01.816Z,25.06
2022-10-26T11:43:37.757Z,25.00
2022-10-26T11:46:19.045Z,24.96
2022-10-26T11:49:05.316Z,24.93
2022-10-26T11:51:39.759Z,24.94
2022-10-26T11:54:15.184Z,24.93
2022-10-26T11:56:48.857Z,24.90
2022-10-26T11:59:20.703Z,24.91
2022-10-26T12:01:58.389Z,24.93
2022-10-26T12:04:33.229Z,24.94
2022-10-26T12:07:03.810Z,24.97
2022-10-26T12:09:35.742Z,24.97
2022-10-26T12:12:19.967Z,24.97
2022-10-26T12:14:59.895Z,24.99
2022-10-26T12:17:36.195Z,24.99
2022-10-26T12:20:37.383Z,24.99
2022-10-26T12:23:08.239Z,25.01
2022-10-26T12:25:34.940Z,25.05
2022-10-26T12:28:01.487Z,25.11
2022-10-26T12:30:36.934Z,25.18
2022-10-26T12:33:30.202Z,25.26
2022-10-26T12:35:56.734Z,25.36
2022-10-26T12:38:29.127Z,25.46
2022-10-26T12:41:06.351Z,25.53
2022-10-26T12:43:37.980Z,25.54
2022-10-26T12:46:12.340Z,25.55
2022-10-26T12:48:40.008Z,25.58
2022-10-26T12:51:27.807Z,25.62
2022-10-26T12:53:57.203Z,25.69
2022-10-26T12:56:42.417Z,25.70
2022-10-26T12:59:38.317Z,25.71
2022-10-26T13:02:07.786Z,25.77
2022-10-26T13:04:52.211Z,25.84
2022-10-26T13:07:22.528Z,25.84
2022-10-26T13:10:05.778Z,25.83
2022-10-26T13:12:55.288Z,25.85
2022-10-26T13:15:31.101Z,25.88
2022-10-26T13:18:10.936Z,25.90
2022-10-26T13:21:13.442Z,25.94
2022-10-26T13:23:44.462Z,25.98
2022-10-26T13:26:24.136Z,26.04
2022-10-26T13:28:53.404Z,26.05
2022-10-26T13:31:29.012Z,26.02
2022-10-26T13:34:20.151Z,26.00
2022-10-26T13:37:21.647Z,26.02
2022-10-26T13:39:49.226Z,26.03
2022-10-26T13:42:21.740Z,26.04
2022-10-26T13:45:12.250Z,26.08
2022-10-26T13:47:44.813Z,26.12
2022-10-26T13:50:16.338Z,26.13
2022-10-26T13:52:47.982Z,26.13
2022-10-26T13:55:27.443Z,26.14
2022-10-26T13:57:56.631Z,26.14
2022-10-26T14:00:23.644Z,26.12
2022-10-26T14:02:50.529Z,26.06
2022-10-26T14:05:22.009Z,26.05
2022-10-26T14:07:58.112Z,26.02
2022-10-26T14:10:29.353Z,25.98
2022-10-26T14:12:57.683Z,25.95
2022-10-26T14:15:31.551Z,25.92
2022-10-26T14:18:01.016Z,25.87
2022-10-26T14:20:29.968Z,25.83
2022-10-26T14:22:56.735Z,25.76
2022-10-26T14:25:36.268Z,25.67
2022-10-26T14:28:32.697Z,25.57
2022-10-26T14:31:25.412Z,25.53
2022-10-26T14:33:53.178Z,25.49
2022-10-26T14:36:26.516Z,25.44
2022-10-26T14:38:58.850Z,25.37
2022-10-26T14:41:26.595Z,25.29
2022-10-26T14:43:56.303Z,25.24
2022-10-26T14:46:23.195Z,25.17
2022-10-26T14:48:58.706Z,25.07
2022-10-26T14:51:30.651Z,24.98
2022-10-26T14:54:01.404Z,24.89
2022-10-26T14:56:46.309Z,24.79
2022-10-26T14:59:26.137Z,24.75
2022-10-26T15:02:10.948Z,24.71
2022-10-26T15:04:58.040Z,24.64
2022-10-26T15:07:25.053Z,24.61
2022-10-26T15:09:53.366Z,24.56
2022-10-26T15:12:22.600Z,24.52
2022-10-26T15:14:51.094Z,24.46
2022-10-26T15:17:33.516Z,24.39
2022-10-26T15:20:06.226Z,24.35
2022-10-26T15:22:34.065Z,24.30
2022-10-26T15:25:05.460Z,24.24
2022-10-26T15:27:32.053Z,24.21
2022-10-26T15:30:21.012Z,24.13
2022-10-26T15:32:47.934Z,24.07
2022-10-26T15:35:29.689Z,23.97
2022-10-26T15:37:57.621Z,23.89
2022-10-26T15:42:59.554Z,23.73
2022-10-26T15:45:29.995Z,23.65
2022-10-26T15:47:59.096Z,23.57
2022-10-26T15:50:28.526Z,23.47
2022-10-26T15:53:00.426Z,23.41
2022-10-26T15:55:29.801Z,23.35
2022-10-26T15:57:56.262Z,23.31
2022-10-26T16:00:22.796Z,23.26
2022-10-26T16:02:49.310Z,23.22
2022-10-26T16:05:17.531Z,23.21
2022-10-26T16:07:46.687Z,23.17
2022-10-26T16:10:17.973Z,23.15
2022-10-26T16:12:44.632Z,23.13
2022-10-26T16:15:23.678Z,23.09
2022-10-26T16:17:51.216Z,23.05
2022-10-26T16:20:22.776Z,23.01
2022-10-26T16:22:51.100Z,22.96
2022-10-26T16:25:22.238Z,22.93
2022-10-26T16:27:51.656Z,22.91
2022-10-26T16:30:19.311Z,22.88
2022-10-26T16:32:46.161Z,22.85
2022-10-26T16:35:13.344Z,22.82
2022-10-26T16:37:40.100Z,22.80
2022-10-26T16:40:08.539Z,22.77
2022-10-26T16:42:35.665Z,22.73
2022-10-26T16:45:04.283Z,22.69
2022-10-26T16:47:35.499Z,22.64
2022-10-26T16:50:03.179Z,22.60
2022-10-26T16:52:29.717Z,22.54
2022-10-26T16:54:57.366Z,22.48
2022-10-26T16:57:23.849Z,22.44
2022-10-26T16:59:50.316Z,22.35
2022-10-26T17:02:17.109Z,22.28
2022-10-26T17:04:48.270Z,22.17
2022-10-26T17:07:14.765Z,22.06
2022-10-26T17:09:41.321Z,21.97
2022-10-26T17:12:08.148Z,21.91
2022-10-26T17:14:35.389Z,21.84
2022-10-26T17:17:01.865Z,21.78
2022-10-26T17:19:28.333Z,21.74
2022-10-26T17:21:54.831Z,21.70
2022-10-26T17:24:24.374Z,21.67
2022-10-26T17:26:50.843Z,21.63
2022-10-26T17:29:17.294Z,21.60
2022-10-26T17:31:43.760Z,21.56
2022-10-26T17:34:13.488Z,21.52
2022-10-26T17:36:39.943Z,21.50
2022-10-26T17:39:06.439Z,21.43
2022-10-26T17:41:32.968Z,21.37
2022-10-26T17:44:19.734Z,21.29
2022-10-26T17:46:46.286Z,21.22
2022-10-26T17:49:12.768Z,21.11
2022-10-26T17:51:39.259Z,21.04
2022-10-26T17:54:09.917Z,21.00
2022-10-26T17:56:36.400Z,20.94
2022-10-26T17:59:05.501Z,20.89
2022-10-26T18:01:32.833Z,20.87
2022-10-26T18:04:20.069Z,20.84
2022-10-26T18:06:46.518Z,20.83
2022-10-26T18:09:13.068Z,20.81
2022-10-26T18:11:39.526Z,20.78
2022-10-26T18:14:07.341Z,20.75
2022-10-26T18:16:33.863Z,20.71
2022-10-26T18:19:04.201Z,20.66
2022-10-26T18:21:33.710Z,20.57
2022-10-26T18:24:25.367Z,20.49
2022-10-26T18:26:51.951Z,20.44
2022-10-26T18:29:18.419Z,20.40
2022-10-26T18:31:45.497Z,20.36
2022-10-26T18:34:13.684Z,20.30
2022-10-26T18:36:40.205Z,20.26
2022-10-26T18:39:07.298Z,20.23
2022-10-26T18:41:34.397Z,20.21
2022-10-26T18:44:08.854Z,20.18
2022-10-26T18:46:39.915Z,20.17
2022-10-26T18:49:06.537Z,20.15
2022-10-26T18:51:34.624Z,20.11
2022-10-26T18:54:05.410Z,20.09
2022-10-26T18:56:32.000Z,20.06
2022-10-26T18:58:59.828Z,20.06
2022-10-26T19:01:32.172Z,20.05
2022-10-26T19:04:26.049Z,20.02
2022-10-26T19:06:52.498Z,20.03
2022-10-26T19:09:19.465Z,20.02
2022-10-26T19:11:46.158Z,20.03
2022-10-26T19:14:14.387Z,20.00
2022-10-26T19:16:45.908Z,19.98
2022-10-26T19:19:14.441Z,19.97
2022-10-26T19:21:41.014Z,19.98
2022-10-26T19:24:13.521Z,19.97
2022-10-26T19:26:43.411Z,19.96
2022-10-26T19:29:14.618Z,19.95
2022-10-26T19:31:41.934Z,19.94
2022-10-26T19:34:14.215Z,19.92
2022-10-26T19:36:44.716Z,19.91
2022-10-26T19:39:12.432Z,19.90
2022-10-26T19:41:38.878Z,19.90
2022-10-26T19:44:10.822Z,19.92
2022-10-26T19:46:38.036Z,19.96
2022-10-26T19:49:04.538Z,20.00
2022-10-26T19:51:32.196Z,20.03
2022-10-26T19:54:07.327Z,20.03
2022-10-26T19:56:35.571Z,20.04
2022-10-26T19:59:02.164Z,20.05
2022-10-26T20:01:28.729Z,20.06
2022-10-26T20:03:55.377Z,20.08
2022-10-26T20:06:23.362Z,20.09
2022-10-26T20:08:50.114Z,20.12
2022-10-26T20:11:19.810Z,20.13
2022-10-26T20:13:47.675Z,20.14
2022-10-26T20:16:18.375Z,20.13
2022-10-26T20:18:48.725Z,20.13
2022-10-26T20:21:17.065Z,20.13
2022-10-26T20:23:44.222Z,20.14
2022-10-26T20:26:18.209Z,20.14
2022-10-26T20:28:47.553Z,20.12
2022-10-26T20:31:14.570Z,20.13
2022-10-26T20:33:41.014Z,20.09
2022-10-26T20:36:08.322Z,20.03
2022-10-26T20:38:35.259Z,19.98
2022-10-26T20:41:04.894Z,19.91
2022-10-26T20:43:35.133Z,19.85
2022-10-26T20:46:03.101Z,19.80
2022-10-26T20:48:29.867Z,19.80
2022-10-26T20:51:06.876Z,19.76
2022-10-26T20:53:42.814Z,19.76
2022-10-26T20:56:40.034Z,19.73
2022-10-26T20:59:09.762Z,19.72
2022-10-26T21:01:38.141Z,19.67
2022-10-26T21:04:06.744Z,19.64
2022-10-26T21:06:39.837Z,19.62
2022-10-26T21:09:07.910Z,19.61
2022-10-26T21:11:34.845Z,19.57
2022-10-26T21:14:05.116Z,19.53
2022-10-26T21:16:31.733Z,19.45
2022-10-26T21:19:00.343Z,19.41
2022-10-26T21:21:27.149Z,19.38
2022-10-26T21:23:53.968Z,19.34
2022-10-26T21:26:20.467Z,19.30
2022-10-26T21:28:46.999Z,19.28
2022-10-26T21:31:17.161Z,19.21
2022-10-26T21:33:45.616Z,19.15
2022-10-26T21:36:16.325Z,19.14
2022-10-26T21:38:45.796Z,19.15
2022-10-26T21:41:18.396Z,19.15
2022-10-26T21:43:47.426Z,19.15
2022-10-26T21:46:15.385Z,19.14
2022-10-26T21:48:43.414Z,19.14
2022-10-26T21:51:15.217Z,19.11
2022-10-26T21:53:42.282Z,19.09
2022-10-26T21:56:20.554Z,19.04
2022-10-26T21:58:48.093Z,19.00
2022-10-26T22:01:17.165Z,18.97
2022-10-26T22:03:45.055Z,18.96
2022-10-26T22:08:49.759Z,18.96
2022-10-26T22:11:22.021Z,18.97
2022-10-26T22:13:49.747Z,18.99
2022-10-26T22:16:24.719Z,18.98
2022-10-26T22:18:54.579Z,18.98
2022-10-26T22:21:25.461Z,18.99
2022-10-26T22:23:52.075Z,19.01
2022-10-26T22:26:24.650Z,19.01
2022-10-26T22:28:56.216Z,19.01
2022-10-26T22:31:32.260Z,19.03
2022-10-26T22:34:13.230Z,19.04
2022-10-26T22:36:39.759Z,19.04
2022-10-26T22:39:06.228Z,19.05
2022-10-26T22:41:32.729Z,19.06
2022-10-26T22:44:06.706Z,19.09
2022-10-26T22:46:33.212Z,19.12
2022-10-26T22:49:01.994Z,19.14
2022-10-26T22:51:32.126Z,19.16
2022-10-26T22:54:16.841Z,19.20
2022-10-26T22:56:43.424Z,19.19
2022-10-26T22:59:09.905Z,19.20
2022-10-26T23:01:38.762Z,19.19
2022-10-26T23:04:14.764Z,19.19
2022-10-26T23:06:41.261Z,19.18
2022-10-26T23:09:07.799Z,19.19
2022-10-26T23:11:34.584Z,19.22
2022-10-26T23:14:07.211Z,19.19
2022-10-26T23:16:33.791Z,19.19
2022-10-26T23:19:00.277Z,19.17
2022-10-26T23:24:08.267Z,19.18
2022-10-26T23:26:34.861Z,19.15
2022-10-26T23:29:01.343Z,19.12
2022-10-26T23:31:28.180Z,19.10
2022-10-26T23:33:56.206Z,19.05
2022-10-26T23:36:24.471Z,19.00
2022-10-26T23:38:51.019Z,18.95
2022-10-26T23:41:17.852Z,18.89
2022-10-26T23:43:44.327Z,18.83
2022-10-26T23:46:12.427Z,18.78
2022-10-26T23:48:38.922Z,18.76
2022-10-26T23:51:05.509Z,18.75
2022-10-26T23:53:32.521Z,18.71
2022-10-26T23:56:03.130Z,18.67
2022-10-26T23:58:29.761Z,18.64
